Terminal Aerodrome Forecast
Issued by NWS

Home | Current Version | Previous Version | Graphics & Text | Print | Product List | Glossary On
Versions: 1 2 3 4 5 6 7 8 9 10 11 12 13 14 15 16 17 18 19 20 21 22 23 24 25 26 27 28 29 30 31 32
000
FTUS43 KABR 250706 AAA
TAFPIR
TAF AMD
KPIR 250706Z 2507/2606 27018G30KT P6SM BKN028 OVC035
     FM250900 30026G36KT P6SM OVC025
     FM251400 30027G37KT P6SM SKC
     FM260100 31012KT P6SM SKC=

USA.gov is the U.S. government's official web portal to all federal, state and local government web resources and services.